createdAt,value
2018-11-14T00:00:03.454Z,0
2018-11-14T00:01:11.502Z,0
2018-11-14T00:02:19.555Z,0
2018-11-14T00:03:27.632Z,0
2018-11-14T00:04:35.691Z,0
2018-11-14T00:05:43.759Z,0
2018-11-14T00:06:51.792Z,0
2018-11-14T00:07:59.868Z,0
2018-11-14T00:09:07.924Z,0
2018-11-14T00:10:15.971Z,0
2018-11-14T00:11:24.042Z,0
2018-11-14T00:12:32.111Z,0
2018-11-14T00:13:40.173Z,0
2018-11-14T00:14:48.222Z,0
2018-11-14T00:15:56.280Z,0
2018-11-14T00:17:04.316Z,0
2018-11-14T00:18:12.405Z,0
2018-11-14T00:19:20.478Z,0
2018-11-14T00:20:28.509Z,0
2018-11-14T00:21:36.566Z,0
2018-11-14T00:22:44.592Z,0
2018-11-14T00:23:52.674Z,0
2018-11-14T00:25:00.734Z,0
2018-11-14T00:26:08.797Z,0
2018-11-14T00:27:16.854Z,0
2018-11-14T00:28:24.889Z,0
2018-11-14T00:29:32.973Z,0
2018-11-14T00:30:41.031Z,0
2018-11-14T00:31:49.074Z,0
2018-11-14T00:32:57.160Z,0
2018-11-14T00:34:05.200Z,0
2018-11-14T00:35:13.260Z,0
2018-11-14T00:36:21.319Z,0
2018-11-14T00:37:29.391Z,0
2018-11-14T00:38:37.437Z,0
2018-11-14T00:39:45.490Z,0
2018-11-14T00:40:53.558Z,0
2018-11-14T00:42:01.616Z,0
2018-11-14T00:43:09.666Z,0
2018-11-14T00:44:17.724Z,0
2018-11-14T00:45:25.790Z,0
2018-11-14T00:46:33.848Z,0
2018-11-14T00:47:41.901Z,0
2018-11-14T00:48:49.962Z,0
2018-11-14T00:49:58.028Z,0
2018-11-14T00:51:06.076Z,0
2018-11-14T00:52:14.145Z,0
2018-11-14T00:53:22.195Z,0
2018-11-14T00:54:30.256Z,0
2018-11-14T00:55:38.333Z,0
2018-11-14T00:56:46.355Z,0
2018-11-14T00:57:54.411Z,0
2018-11-14T00:59:02.482Z,0
2018-11-14T01:00:10.534Z,0
2018-11-14T01:01:18.651Z,0
2018-11-14T01:02:26.654Z,0
2018-11-14T01:03:34.696Z,0
2018-11-14T01:04:42.778Z,0
2018-11-14T01:05:50.818Z,0
2018-11-14T01:06:58.884Z,0
2018-11-14T01:08:06.949Z,0
2018-11-14T01:09:15.035Z,0
2018-11-14T01:10:23.057Z,0
2018-11-14T01:11:31.105Z,0
2018-11-14T01:12:39.173Z,0
2018-11-14T01:13:47.232Z,0
2018-11-14T01:14:55.305Z,0
2018-11-14T01:16:03.333Z,0
2018-11-14T01:17:11.480Z,0
2018-11-14T01:18:19.476Z,0
2018-11-14T01:19:27.510Z,0
2018-11-14T01:20:35.572Z,0
2018-11-14T01:21:43.658Z,0
2018-11-14T01:22:51.692Z,0
2018-11-14T01:23:59.738Z,0
2018-11-14T01:25:07.807Z,0
2018-11-14T01:26:15.855Z,0
2018-11-14T01:27:24.215Z,0
2018-11-14T01:28:31.972Z,0
2018-11-14T01:29:40.033Z,0
2018-11-14T01:30:48.097Z,0
2018-11-14T01:31:56.151Z,0
2018-11-14T01:33:04.192Z,0
2018-11-14T01:34:12.427Z,0
2018-11-14T01:35:20.324Z,0
2018-11-14T01:36:28.374Z,0
2018-11-14T01:37:36.474Z,0
2018-11-14T01:38:44.494Z,0
2018-11-14T01:39:52.549Z,0
2018-11-14T01:41:00.605Z,0
2018-11-14T01:42:08.660Z,0
2018-11-14T01:43:16.722Z,0
2018-11-14T01:44:24.768Z,0
2018-11-14T01:45:32.827Z,0
2018-11-14T01:46:40.894Z,0
2018-11-14T01:47:48.954Z,0
2018-11-14T01:48:57.165Z,0
2018-11-14T01:50:05.043Z,0
2018-11-14T01:51:13.116Z,0
2018-11-14T01:52:21.196Z,0
2018-11-14T01:53:29.234Z,0
2018-11-14T01:54:37.289Z,0
2018-11-14T01:55:45.332Z,0
2018-11-14T01:56:53.400Z,0
2018-11-14T01:58:02.233Z,0
2018-11-14T01:59:09.513Z,0
2018-11-14T02:00:17.575Z,0
2018-11-14T02:01:25.642Z,0
2018-11-14T02:02:33.707Z,0
2018-11-14T02:03:41.750Z,0
2018-11-14T02:04:49.824Z,0
2018-11-14T02:05:57.861Z,0
2018-11-14T02:07:05.914Z,0
2018-11-14T02:08:13.978Z,0
2018-11-14T02:09:22.038Z,0
2018-11-14T02:10:30.093Z,0
2018-11-14T02:11:38.145Z,0
2018-11-14T02:12:46.238Z,0
2018-11-14T02:13:54.268Z,0
2018-11-14T02:15:02.326Z,0
2018-11-14T02:16:10.374Z,0
2018-11-14T02:17:18.427Z,0
2018-11-14T02:18:26.493Z,0
2018-11-14T02:19:34.540Z,0
2018-11-14T02:20:42.619Z,0
2018-11-14T02:21:50.665Z,0
2018-11-14T02:22:58.724Z,0
2018-11-14T02:24:06.789Z,0
2018-11-14T02:25:14.825Z,0
2018-11-14T02:26:22.894Z,0
2018-11-14T02:27:30.947Z,0
2018-11-14T02:28:39.009Z,0
2018-11-14T02:29:47.059Z,0
2018-11-14T02:30:55.110Z,0
2018-11-14T02:32:03.168Z,0
2018-11-14T02:33:11.235Z,0
2018-11-14T02:34:19.325Z,0
2018-11-14T02:35:27.377Z,0
2018-11-14T02:36:35.414Z,0
2018-11-14T02:37:43.464Z,0
2018-11-14T02:38:51.528Z,0
2018-11-14T02:39:59.581Z,0
2018-11-14T02:41:07.641Z,0
2018-11-14T02:42:15.698Z,0
2018-11-14T02:43:23.763Z,0
2018-11-14T02:44:31.801Z,0
2018-11-14T02:45:39.865Z,0
2018-11-14T02:46:47.922Z,0
2018-11-14T02:47:55.979Z,0
2018-11-14T02:49:04.030Z,0
2018-11-14T02:50:12.103Z,0
2018-11-14T02:51:20.157Z,0
2018-11-14T02:52:28.223Z,0
2018-11-14T02:53:36.304Z,0
2018-11-14T02:54:44.306Z,0
2018-11-14T02:55:52.380Z,0
2018-11-14T02:57:00.438Z,0
2018-11-14T02:58:08.518Z,0
2018-11-14T02:59:16.551Z,0
2018-11-14T03:00:24.583Z,0
2018-11-14T03:01:32.734Z,0
2018-11-14T03:02:40.733Z,0
2018-11-14T03:03:48.788Z,0
2018-11-14T03:04:56.832Z,0
2018-11-14T03:06:04.875Z,0
2018-11-14T03:07:12.955Z,0
2018-11-14T03:08:21.014Z,0
2018-11-14T03:09:29.075Z,0
2018-11-14T03:10:37.127Z,0
2018-11-14T03:11:45.158Z,0
2018-11-14T03:12:53.277Z,0
2018-11-14T03:14:01.304Z,0
2018-11-14T03:15:09.349Z,0
2018-11-14T03:16:17.410Z,0
2018-11-14T03:17:25.480Z,0
2018-11-14T03:18:33.527Z,0
2018-11-14T03:19:41.576Z,0
2018-11-14T03:20:49.651Z,0
2018-11-14T03:21:57.690Z,0
2018-11-14T03:23:05.753Z,0
2018-11-14T03:24:13.827Z,0
2018-11-14T03:25:21.869Z,0
2018-11-14T03:26:29.930Z,0
2018-11-14T03:27:37.983Z,0
2018-11-14T03:28:46.048Z,0
2018-11-14T03:29:54.109Z,0
2018-11-14T03:31:02.157Z,0
2018-11-14T03:32:10.217Z,0
2018-11-14T03:33:18.280Z,0
2018-11-14T03:34:26.333Z,0
2018-11-14T03:35:34.368Z,0
2018-11-14T03:36:42.447Z,0
2018-11-14T03:37:50.498Z,0
2018-11-14T03:38:58.552Z,0
2018-11-14T03:40:06.635Z,0
2018-11-14T03:41:14.662Z,0
2018-11-14T03:42:22.741Z,0
2018-11-14T03:43:30.793Z,0
2018-11-14T03:44:38.859Z,0
2018-11-14T03:45:46.908Z,0
2018-11-14T03:46:54.934Z,0
2018-11-14T03:48:03.015Z,0
2018-11-14T03:49:11.079Z,0
2018-11-14T03:50:19.131Z,0
2018-11-14T03:51:27.192Z,0
2018-11-14T03:52:35.244Z,0
2018-11-14T03:53:43.308Z,0
2018-11-14T03:54:51.366Z,0
2018-11-14T03:55:59.437Z,0
2018-11-14T03:57:07.471Z,0
2018-11-14T03:58:15.545Z,0
2018-11-14T03:59:23.592Z,0
2018-11-14T04:00:31.645Z,0
2018-11-14T04:01:39.707Z,0
2018-11-14T04:02:47.764Z,0
2018-11-14T04:03:55.823Z,0
2018-11-14T04:05:03.870Z,0
2018-11-14T04:06:11.932Z,0
2018-11-14T04:07:20.035Z,0
2018-11-14T04:08:28.083Z,0
2018-11-14T04:09:36.106Z,0
2018-11-14T04:10:44.165Z,0
2018-11-14T04:11:52.226Z,0
2018-11-14T04:13:00.304Z,0
2018-11-14T04:14:08.351Z,0
2018-11-14T04:15:16.401Z,0
2018-11-14T04:16:24.429Z,0
2018-11-14T04:17:32.507Z,0
2018-11-14T04:18:40.563Z,0
2018-11-14T04:19:48.629Z,0
2018-11-14T04:20:56.683Z,0
2018-11-14T04:22:04.721Z,0
2018-11-14T04:23:12.789Z,0
2018-11-14T04:24:20.851Z,0
2018-11-14T04:25:28.903Z,0
2018-11-14T04:26:36.976Z,0
2018-11-14T04:27:45.030Z,0
2018-11-14T04:28:53.091Z,0
2018-11-14T04:30:01.154Z,0
2018-11-14T04:31:09.204Z,0
2018-11-14T04:32:17.287Z,0
2018-11-14T04:33:25.299Z,0
2018-11-14T04:34:33.371Z,0
2018-11-14T04:35:41.450Z,0
2018-11-14T04:36:49.496Z,0
2018-11-14T04:37:57.552Z,0
2018-11-14T04:39:05.610Z,0
2018-11-14T04:40:13.664Z,0
2018-11-14T04:41:21.710Z,0
2018-11-14T04:42:29.789Z,0
2018-11-14T04:43:37.836Z,0
2018-11-14T04:44:45.892Z,0
2018-11-14T04:45:53.960Z,0
2018-11-14T04:47:02.010Z,0
2018-11-14T04:48:10.068Z,0
2018-11-14T04:49:18.166Z,0
2018-11-14T04:50:26.171Z,0
2018-11-14T04:51:34.233Z,0
2018-11-14T04:52:42.286Z,0
2018-11-14T04:53:50.357Z,0
2018-11-14T04:54:58.410Z,0
2018-11-14T04:56:06.467Z,0
2018-11-14T04:57:14.503Z,0
2018-11-14T04:58:22.575Z,0
2018-11-14T04:59:30.630Z,0
2018-11-14T05:00:38.694Z,0
2018-11-14T05:01:46.746Z,0
2018-11-14T05:02:54.784Z,0
2018-11-14T05:04:02.867Z,0
2018-11-14T05:05:10.956Z,0
2018-11-14T05:06:19.006Z,0
2018-11-14T05:07:27.035Z,0
2018-11-14T05:08:35.082Z,0
2018-11-14T05:09:43.158Z,0
2018-11-14T05:10:51.221Z,0
2018-11-14T05:11:59.272Z,0
2018-11-14T05:13:07.439Z,0
2018-11-14T05:14:15.390Z,0
2018-11-14T05:15:23.444Z,0
2018-11-14T05:16:31.506Z,0
2018-11-14T05:17:39.560Z,0
2018-11-14T05:18:47.621Z,0
2018-11-14T05:19:55.681Z,0
2018-11-14T05:21:03.737Z,0
2018-11-14T05:22:11.787Z,0
2018-11-14T05:23:19.843Z,0
2018-11-14T05:24:27.950Z,0
2018-11-14T05:25:35.966Z,0
2018-11-14T05:26:44.082Z,0
2018-11-14T05:27:52.089Z,0
2018-11-14T05:29:00.130Z,0
2018-11-14T05:30:08.209Z,0
2018-11-14T05:31:16.245Z,0
2018-11-14T05:32:24.292Z,0
2018-11-14T05:33:32.364Z,0
2018-11-14T05:34:40.419Z,0
2018-11-14T05:35:48.479Z,0
2018-11-14T05:36:56.532Z,0
2018-11-14T05:38:04.591Z,0
2018-11-14T05:39:12.914Z,0
2018-11-14T05:40:21.215Z,0
2018-11-14T05:41:28.757Z,0
2018-11-14T05:42:37.228Z,0
2018-11-14T05:43:44.859Z,0
2018-11-14T05:44:52.944Z,0
2018-11-14T05:46:04.395Z,0
2018-11-14T05:47:09.235Z,0
2018-11-14T05:48:17.120Z,0
2018-11-14T05:49:25.168Z,0
2018-11-14T05:50:33.502Z,0
2018-11-14T05:51:41.301Z,0
2018-11-14T05:52:49.360Z,0
2018-11-14T05:53:57.407Z,0
2018-11-14T05:55:05.494Z,0
2018-11-14T05:56:13.516Z,0
2018-11-14T05:57:21.582Z,4
2018-11-14T05:58:29.919Z,0
2018-11-14T05:59:37.688Z,4
2018-11-14T06:00:45.771Z,0
2018-11-14T06:01:53.967Z,4
2018-11-14T06:03:01.881Z,4
2018-11-14T06:04:09.939Z,8
2018-11-14T06:05:17.979Z,8
2018-11-14T06:06:26.056Z,8
2018-11-14T06:07:34.135Z,12
2018-11-14T06:08:42.220Z,16
2018-11-14T06:09:50.268Z,20
2018-11-14T06:10:58.301Z,24
2018-11-14T06:12:06.349Z,28
2018-11-14T06:13:14.364Z,32
2018-11-14T06:14:22.459Z,36
2018-11-14T06:15:30.566Z,48
2018-11-14T06:16:38.573Z,52
2018-11-14T06:17:46.623Z,68
2018-11-14T06:18:54.668Z,72
2018-11-14T06:20:02.833Z,88
2018-11-14T06:21:10.819Z,104
2018-11-14T06:22:18.867Z,120
2018-11-14T06:23:26.933Z,136
2018-11-14T06:24:34.972Z,152
2018-11-14T06:25:43.140Z,168
2018-11-14T06:26:51.130Z,196
2018-11-14T06:27:59.155Z,228
2018-11-14T06:29:07.213Z,248
2018-11-14T06:30:15.272Z,284
2018-11-14T06:31:23.347Z,328
2018-11-14T06:32:31.393Z,360
2018-11-14T06:33:39.459Z,424
2018-11-14T06:34:47.523Z,488
2018-11-14T06:35:55.563Z,556
2018-11-14T06:37:03.629Z,636
2018-11-14T06:38:11.690Z,704
2018-11-14T06:39:19.735Z,800
2018-11-14T06:40:27.797Z,868
2018-11-14T06:41:35.864Z,916
2018-11-14T06:42:43.932Z,948
2018-11-14T06:43:51.998Z,968
2018-11-14T06:45:00.057Z,980
2018-11-14T06:46:08.092Z,984
2018-11-14T06:47:16.167Z,996
2018-11-14T06:48:24.198Z,1016
2018-11-14T06:49:32.273Z,1016
2018-11-14T06:50:40.332Z,1040
2018-11-14T06:51:48.387Z,1072
2018-11-14T06:52:56.456Z,1088
2018-11-14T06:54:04.485Z,1120
2018-11-14T06:55:12.563Z,1152
2018-11-14T06:56:20.631Z,1180
2018-11-14T06:57:28.736Z,1208
2018-11-14T06:58:36.756Z,1212
2018-11-14T06:59:44.810Z,1236
2018-11-14T07:00:52.866Z,1256
2018-11-14T07:02:00.909Z,1308
2018-11-14T07:03:08.996Z,1292
2018-11-14T07:04:17.032Z,1360
2018-11-14T07:05:25.135Z,1448
2018-11-14T07:06:33.169Z,1520
2018-11-14T07:07:41.214Z,1468
2018-11-14T07:08:49.285Z,1576
2018-11-14T07:09:57.340Z,1520
2018-11-14T07:11:05.491Z,1740
2018-11-14T07:12:13.452Z,1600
2018-11-14T07:13:21.509Z,1732
2018-11-14T07:14:29.567Z,1752
2018-11-14T07:15:37.628Z,1908
2018-11-14T07:16:45.699Z,1680
2018-11-14T07:17:53.807Z,1852
2018-11-14T07:19:01.794Z,1848
2018-11-14T07:20:09.875Z,2024
2018-11-14T07:21:17.930Z,2076
2018-11-14T07:22:25.973Z,2256
2018-11-14T07:23:34.093Z,2416
2018-11-14T07:24:42.171Z,2232
2018-11-14T07:25:50.164Z,2096
2018-11-14T07:26:58.211Z,2064
2018-11-14T07:28:06.273Z,1996
2018-11-14T07:29:14.308Z,1692
2018-11-14T07:30:22.386Z,1628
2018-11-14T07:31:30.464Z,1740
2018-11-14T07:32:38.502Z,1920
2018-11-14T07:33:46.572Z,1832
2018-11-14T07:34:54.605Z,1872
2018-11-14T07:36:02.691Z,1708
2018-11-14T07:37:10.760Z,1800
2018-11-14T07:38:18.795Z,1928
2018-11-14T07:39:26.853Z,2224
2018-11-14T07:40:34.911Z,2816
2018-11-14T07:41:42.989Z,2508
2018-11-14T07:42:51.017Z,2720
2018-11-14T07:43:59.097Z,3652
2018-11-14T07:45:07.141Z,3060
2018-11-14T07:46:15.219Z,2896
2018-11-14T07:47:23.263Z,3788
2018-11-14T07:48:31.343Z,3652
2018-11-14T07:49:39.375Z,3344
2018-11-14T07:50:47.464Z,4420
2018-11-14T07:51:55.493Z,3340
2018-11-14T07:53:03.565Z,5192
2018-11-14T07:54:11.645Z,4220
2018-11-14T07:55:19.692Z,3868
2018-11-14T07:56:27.742Z,5208
2018-11-14T07:57:35.792Z,3768
2018-11-14T07:58:43.854Z,3924
2018-11-14T07:59:51.920Z,3824
2018-11-14T08:00:59.983Z,2828
2018-11-14T08:02:08.093Z,2492
2018-11-14T08:03:16.084Z,2712
2018-11-14T08:04:24.154Z,3900
2018-11-14T08:05:32.222Z,3636
2018-11-14T08:06:40.282Z,4412
2018-11-14T08:07:48.377Z,3816
2018-11-14T08:08:56.419Z,4860
2018-11-14T08:10:04.460Z,3120
2018-11-14T08:11:12.506Z,3368
2018-11-14T08:12:20.592Z,4472
2018-11-14T08:13:28.640Z,4124
2018-11-14T08:14:36.699Z,3632
2018-11-14T08:15:44.739Z,3384
2018-11-14T08:16:52.824Z,3540
2018-11-14T08:18:00.885Z,3176
2018-11-14T08:19:08.940Z,4156
2018-11-14T08:20:17.001Z,4424
2018-11-14T08:21:25.062Z,3620
2018-11-14T08:22:33.122Z,3744
2018-11-14T08:23:41.197Z,4324
2018-11-14T08:24:49.257Z,5028
2018-11-14T08:25:57.304Z,4664
2018-11-14T08:27:05.376Z,4568
2018-11-14T08:28:13.466Z,4080
2018-11-14T08:29:21.500Z,3940
2018-11-14T08:30:29.559Z,4524
2018-11-14T08:31:37.590Z,4168
2018-11-14T08:32:45.668Z,2824
2018-11-14T08:33:53.731Z,3216
2018-11-14T08:35:01.800Z,3612
2018-11-14T08:36:09.851Z,3584
2018-11-14T08:37:17.899Z,3924
2018-11-14T08:38:25.966Z,3988
2018-11-14T08:39:34.048Z,3912
2018-11-14T08:40:42.100Z,4340
2018-11-14T08:41:50.150Z,4304
2018-11-14T08:42:58.208Z,4104
2018-11-14T08:44:06.287Z,4556
2018-11-14T08:45:14.322Z,5408
2018-11-14T08:46:22.381Z,6936
2018-11-14T08:47:30.452Z,7832
2018-11-14T08:48:38.527Z,6560
2018-11-14T08:49:46.584Z,7084
2018-11-14T08:50:54.617Z,6812
2018-11-14T08:52:02.690Z,7584
2018-11-14T08:53:10.764Z,6808
2018-11-14T08:54:18.822Z,7496
2018-11-14T08:55:26.921Z,6632
2018-11-14T08:56:34.916Z,6812
2018-11-14T08:57:43.002Z,7416
2018-11-14T08:58:51.071Z,7924
2018-11-14T08:59:59.137Z,8516
2018-11-14T09:01:07.191Z,7428
2018-11-14T09:02:15.251Z,4800
2018-11-14T09:03:23.323Z,4904
2018-11-14T09:04:31.384Z,6412
2018-11-14T09:05:39.433Z,6604
2018-11-14T09:06:47.506Z,6340
2018-11-14T09:07:55.626Z,5708
2018-11-14T09:09:03.627Z,6908
2018-11-14T09:10:11.686Z,6912
2018-11-14T09:11:19.881Z,7208
2018-11-14T09:12:27.923Z,7712
2018-11-14T09:13:41.741Z,7060
2018-11-14T09:14:49.857Z,6304
2018-11-14T09:15:57.872Z,5844
2018-11-14T09:17:05.929Z,5588
2018-11-14T09:18:14.093Z,6488
2018-11-14T09:19:22.032Z,5916
2018-11-14T09:20:30.099Z,8060
2018-11-14T09:21:40.183Z,6408
2018-11-14T09:22:48.240Z,7392
2018-11-14T09:23:56.294Z,7304
2018-11-14T09:25:04.390Z,9900
2018-11-14T09:26:12.433Z,9376
2018-11-14T09:27:20.477Z,9668
2018-11-14T09:28:28.560Z,9380
2018-11-14T09:29:36.627Z,9584
2018-11-14T09:30:44.856Z,8604
2018-11-14T09:31:52.744Z,6924
2018-11-14T09:33:00.849Z,6376
2018-11-14T09:34:08.870Z,6112
2018-11-14T09:35:16.926Z,3620
2018-11-14T09:36:24.966Z,2428
2018-11-14T09:37:33.047Z,2104
2018-11-14T09:38:41.130Z,1996
2018-11-14T09:39:49.186Z,1988
2018-11-14T09:40:57.339Z,2108
2018-11-14T09:42:05.298Z,2280
2018-11-14T09:43:13.370Z,2284
2018-11-14T09:44:21.420Z,2188
2018-11-14T09:45:29.494Z,2132
2018-11-14T09:46:37.570Z,2512
2018-11-14T09:47:45.626Z,3120
2018-11-14T09:48:53.689Z,2964
2018-11-14T09:50:01.738Z,3504
2018-11-14T09:51:09.789Z,3944
2018-11-14T09:52:17.858Z,5424
2018-11-14T09:53:26.046Z,6392
2018-11-14T09:54:34.006Z,6372
2018-11-14T09:55:42.044Z,6648
2018-11-14T09:56:50.184Z,6644
2018-11-14T09:57:58.168Z,7128
2018-11-14T09:59:06.242Z,7252
2018-11-14T10:00:14.288Z,6764
2018-11-14T10:01:22.972Z,7176
2018-11-14T10:02:30.425Z,6520
2018-11-14T10:03:38.786Z,7408
2018-11-14T10:04:46.551Z,6448
2018-11-14T10:05:54.579Z,6876
2018-11-14T10:07:02.675Z,6300
2018-11-14T10:08:10.735Z,6140
2018-11-14T10:09:18.798Z,6780
2018-11-14T10:10:26.844Z,7244
2018-11-14T10:11:34.884Z,7808
2018-11-14T10:12:42.977Z,6648
2018-11-14T10:13:51.041Z,5944
2018-11-14T10:14:59.109Z,6288
2018-11-14T10:16:07.162Z,7428
2018-11-14T10:17:15.232Z,8176
2018-11-14T10:18:23.303Z,8768
2018-11-14T10:19:31.368Z,8012
2018-11-14T10:20:39.422Z,7956
2018-11-14T10:21:47.473Z,7944
2018-11-14T10:22:55.540Z,7068
2018-11-14T10:24:03.616Z,7072
2018-11-14T10:25:11.669Z,7168
2018-11-14T10:26:19.731Z,7716
2018-11-14T10:27:27.783Z,7068
2018-11-14T10:28:35.853Z,6848
2018-11-14T10:29:43.925Z,6984
2018-11-14T10:30:52.021Z,7064
2018-11-14T10:32:00.042Z,6468
2018-11-14T10:33:08.096Z,7108
2018-11-14T10:34:16.208Z,7632
2018-11-14T10:35:24.217Z,7412
2018-11-14T10:36:32.289Z,7120
2018-11-14T10:37:40.368Z,7284
2018-11-14T10:38:48.415Z,7540
2018-11-14T10:39:56.492Z,7472
2018-11-14T10:41:04.529Z,7584
2018-11-14T10:42:12.602Z,8000
2018-11-14T10:43:20.683Z,7592
2018-11-14T10:44:28.752Z,7620
2018-11-14T10:45:36.793Z,7492
2018-11-14T10:46:44.849Z,8072
2018-11-14T10:47:52.928Z,8016
2018-11-14T10:49:00.999Z,7216
2018-11-14T10:50:09.055Z,7372
2018-11-14T10:51:17.124Z,7952
2018-11-14T10:52:25.161Z,7704
2018-11-14T10:53:33.257Z,8136
2018-11-14T10:54:41.313Z,7636
2018-11-14T10:55:49.391Z,6728
2018-11-14T10:56:57.431Z,6764
2018-11-14T10:58:05.511Z,6844
2018-11-14T10:59:13.582Z,6780
2018-11-14T11:00:21.636Z,6752
2018-11-14T11:01:29.684Z,6900
2018-11-14T11:02:37.756Z,7532
2018-11-14T11:03:45.828Z,7412
2018-11-14T11:04:53.888Z,7452
2018-11-14T11:06:01.957Z,7956
2018-11-14T11:07:10.009Z,7900
2018-11-14T11:08:18.111Z,7520
2018-11-14T11:09:26.138Z,7632
2018-11-14T11:10:34.190Z,7816
2018-11-14T11:11:42.263Z,7036
2018-11-14T11:12:50.333Z,7248
2018-11-14T11:13:58.514Z,7348
2018-11-14T11:15:06.463Z,6772
2018-11-14T11:16:14.514Z,6344
2018-11-14T11:17:22.586Z,7104
2018-11-14T11:18:30.649Z,7288
2018-11-14T11:19:38.728Z,7080
2018-11-14T11:20:46.784Z,7172
2018-11-14T11:21:54.822Z,7140
2018-11-14T11:23:02.893Z,6992
2018-11-14T11:24:10.963Z,6776
2018-11-14T11:25:19.029Z,6784
2018-11-14T11:26:27.103Z,6584
2018-11-14T11:27:35.154Z,6620
2018-11-14T11:28:43.232Z,7140
2018-11-14T11:29:51.285Z,6944
2018-11-14T11:30:59.361Z,6940
2018-11-14T11:32:07.542Z,7040
2018-11-14T11:33:15.477Z,6704
2018-11-14T11:34:23.539Z,6536
2018-11-14T11:35:31.595Z,5888
2018-11-14T11:36:39.679Z,5124
2018-11-14T11:37:47.733Z,5196
2018-11-14T11:38:55.793Z,5316
2018-11-14T11:40:03.867Z,5228
2018-11-14T11:41:11.921Z,5380
2018-11-14T11:42:19.988Z,5116
2018-11-14T11:43:28.060Z,5092
2018-11-14T11:44:36.167Z,5228
2018-11-14T11:45:44.172Z,5524
2018-11-14T11:46:52.241Z,5964
2018-11-14T11:48:00.318Z,6300
2018-11-14T11:49:08.389Z,6468
2018-11-14T11:50:16.460Z,6472
2018-11-14T11:51:24.492Z,6320
2018-11-14T11:52:35.189Z,5936
2018-11-14T11:53:43.236Z,5864
2018-11-14T11:54:51.316Z,6308
2018-11-14T11:55:59.380Z,6460
2018-11-14T11:57:07.438Z,6316
2018-11-14T11:58:15.501Z,6344
2018-11-14T11:59:23.616Z,6668
2018-11-14T12:00:31.787Z,7088
2018-11-14T12:01:39.688Z,6992
2018-11-14T12:02:47.761Z,6924
2018-11-14T12:03:55.813Z,6964
2018-11-14T12:05:03.890Z,6772
2018-11-14T12:06:12.086Z,6388
2018-11-14T12:07:20.007Z,6132
2018-11-14T12:08:28.083Z,6304
2018-11-14T12:09:36.151Z,6280
2018-11-14T12:10:44.242Z,6384
2018-11-14T12:11:52.275Z,6284
2018-11-14T12:13:01.012Z,6308
2018-11-14T12:14:08.400Z,6264
2018-11-14T12:15:16.469Z,6316
2018-11-14T12:16:24.504Z,6248
2018-11-14T12:17:32.628Z,6076
2018-11-14T12:18:40.658Z,6132
2018-11-14T12:19:48.709Z,6092
2018-11-14T12:20:56.780Z,6076
2018-11-14T12:22:04.828Z,6040
2018-11-14T12:23:13.892Z,6220
2018-11-14T12:24:22.001Z,6240
2018-11-14T12:25:30.030Z,6140
2018-11-14T12:26:38.096Z,5844
2018-11-14T12:27:46.178Z,5648
2018-11-14T12:28:54.223Z,5612
2018-11-14T12:30:02.348Z,5224
2018-11-14T12:31:10.508Z,5880
2018-11-14T12:32:18.422Z,5880
2018-11-14T12:33:26.485Z,6012
2018-11-14T12:34:34.561Z,6132
2018-11-14T12:35:42.752Z,6148
2018-11-14T12:36:50.653Z,5776
2018-11-14T12:37:58.743Z,5932
2018-11-14T12:39:06.805Z,5764
2018-11-14T12:40:14.833Z,5372
2018-11-14T12:41:22.919Z,5520
2018-11-14T12:42:30.995Z,5708
2018-11-14T12:43:39.073Z,5772
2018-11-14T12:44:47.108Z,5648
2018-11-14T12:45:55.170Z,5868
2018-11-14T12:47:03.237Z,5812
2018-11-14T12:48:11.309Z,5708
2018-11-14T12:49:19.378Z,5540
2018-11-14T12:50:27.431Z,5380
2018-11-14T12:51:37.495Z,5512
2018-11-14T12:52:45.622Z,5832
2018-11-14T12:53:53.651Z,5612
2018-11-14T12:55:01.696Z,5084
2018-11-14T12:56:09.757Z,5152
2018-11-14T12:57:17.828Z,5248
2018-11-14T12:58:25.884Z,5424
2018-11-14T12:59:34.036Z,5276
2018-11-14T13:00:42.020Z,5452
2018-11-14T13:01:50.092Z,5508
2018-11-14T13:02:58.143Z,5280
2018-11-14T13:04:06.211Z,5116
2018-11-14T13:05:14.280Z,4696
2018-11-14T13:06:22.351Z,4688
2018-11-14T13:07:30.390Z,5092
2018-11-14T13:08:38.557Z,4920
2018-11-14T13:11:16.257Z,5260
2018-11-14T13:12:13.372Z,5448
2018-11-14T13:13:24.806Z,5232
2018-11-14T13:15:49.255Z,4688
2018-11-14T13:16:57.314Z,4368
2018-11-14T13:18:05.365Z,4500
2018-11-14T13:19:13.425Z,4728
2018-11-14T13:20:32.002Z,5264
2018-11-14T13:21:33.792Z,5028
2018-11-14T13:22:41.850Z,4544
2018-11-14T13:23:49.912Z,4244
2018-11-14T13:24:57.988Z,3956
2018-11-14T13:26:06.037Z,4020
2018-11-14T13:27:14.084Z,4252
2018-11-14T13:28:22.163Z,4380
2018-11-14T13:29:30.235Z,4656
2018-11-14T13:30:38.294Z,4312
2018-11-14T13:31:46.351Z,4108
2018-11-14T13:32:54.398Z,4096
2018-11-14T13:34:02.472Z,3964
2018-11-14T13:35:23.387Z,3796
2018-11-14T13:36:18.612Z,3784
2018-11-14T13:37:26.654Z,3768
2018-11-14T13:38:34.709Z,3764
2018-11-14T13:39:44.274Z,3568
2018-11-14T13:40:52.263Z,3708
2018-11-14T13:42:00.314Z,3716
2018-11-14T13:43:11.569Z,3540
2018-11-14T13:44:16.453Z,3336
2018-11-14T13:45:24.478Z,3248
2018-11-14T13:46:32.570Z,3328
2018-11-14T13:47:40.642Z,3372
2018-11-14T13:48:48.712Z,3416
2018-11-14T13:49:56.931Z,3332
2018-11-14T13:51:04.966Z,3308
2018-11-14T13:52:12.888Z,3236
2018-11-14T13:53:20.943Z,3164
2018-11-14T13:54:28.992Z,3200
2018-11-14T13:55:43.947Z,3268
2018-11-14T13:56:51.990Z,3060
2018-11-14T13:58:00.071Z,2904
2018-11-14T13:59:08.118Z,2904
2018-11-14T14:00:16.187Z,2980
2018-11-14T14:01:24.354Z,2896
2018-11-14T14:02:32.310Z,2708
2018-11-14T14:03:40.376Z,2676
2018-11-14T14:04:48.431Z,2652
2018-11-14T14:05:56.497Z,2488
2018-11-14T14:07:04.536Z,2428
2018-11-14T14:08:12.628Z,2372
2018-11-14T14:09:20.693Z,2256
2018-11-14T14:10:28.739Z,2192
2018-11-14T14:11:36.807Z,2172
2018-11-14T14:12:44.882Z,2116
2018-11-14T14:13:52.954Z,2072
2018-11-14T14:15:00.993Z,2076
2018-11-14T14:16:09.107Z,2108
2018-11-14T14:17:17.124Z,2084
2018-11-14T14:18:27.800Z,2072
2018-11-14T14:19:35.852Z,2116
2018-11-14T14:20:43.924Z,2076
2018-11-14T14:21:51.989Z,2000
2018-11-14T14:23:00.058Z,1940
2018-11-14T14:24:08.105Z,1884
2018-11-14T14:25:16.180Z,1888
2018-11-14T14:26:24.225Z,1832
2018-11-14T14:27:32.290Z,1784
2018-11-14T14:28:40.347Z,1728
2018-11-14T14:29:48.436Z,1728
2018-11-14T14:30:56.498Z,1680
2018-11-14T14:32:04.530Z,1632
2018-11-14T14:33:12.605Z,1584
2018-11-14T14:34:20.663Z,1540
2018-11-14T14:35:28.712Z,1528
2018-11-14T14:36:36.786Z,1452
2018-11-14T14:37:44.831Z,1404
2018-11-14T14:38:52.923Z,1392
2018-11-14T14:40:01.002Z,1372
2018-11-14T14:41:09.035Z,1388
2018-11-14T14:42:17.110Z,1360
2018-11-14T14:43:25.149Z,1312
2018-11-14T14:44:33.234Z,1352
2018-11-14T14:45:41.294Z,1400
2018-11-14T14:46:49.361Z,1332
2018-11-14T14:47:57.418Z,1256
2018-11-14T14:49:05.478Z,1244
2018-11-14T14:50:13.530Z,1216
2018-11-14T14:51:21.602Z,1140
2018-11-14T14:52:29.673Z,1148
2018-11-14T14:53:37.730Z,1176
2018-11-14T14:54:45.785Z,1188
2018-11-14T14:55:53.834Z,1160
2018-11-14T14:57:01.918Z,1128
2018-11-14T14:58:09.980Z,1136
2018-11-14T14:59:18.035Z,1152
2018-11-14T15:00:26.098Z,1140
2018-11-14T15:01:34.156Z,1172
2018-11-14T15:02:42.223Z,1160
2018-11-14T15:03:50.292Z,1100
2018-11-14T15:04:58.353Z,1056
2018-11-14T15:06:06.407Z,984
2018-11-14T15:07:14.457Z,920
2018-11-14T15:08:22.535Z,876
2018-11-14T15:09:30.625Z,824
2018-11-14T15:10:38.650Z,804
2018-11-14T15:11:46.711Z,788
2018-11-14T15:12:54.745Z,744
2018-11-14T15:14:02.834Z,720
2018-11-14T15:15:10.891Z,712
2018-11-14T15:16:18.956Z,684
2018-11-14T15:17:27.034Z,648
2018-11-14T15:18:35.065Z,628
2018-11-14T15:19:43.138Z,600
2018-11-14T15:20:51.237Z,564
2018-11-14T15:21:59.282Z,540
2018-11-14T15:23:07.328Z,512
2018-11-14T15:24:15.374Z,496
2018-11-14T15:25:23.452Z,456
2018-11-14T15:26:31.514Z,424
2018-11-14T15:27:39.579Z,416
2018-11-14T15:28:47.759Z,392
2018-11-14T15:29:55.700Z,376
2018-11-14T15:31:03.760Z,364
2018-11-14T15:32:11.816Z,352
2018-11-14T15:33:19.873Z,320
2018-11-14T15:34:27.936Z,304
2018-11-14T15:35:36.004Z,288
2018-11-14T15:36:44.055Z,264
2018-11-14T15:37:52.122Z,248
2018-11-14T15:39:00.183Z,236
2018-11-14T15:40:08.254Z,216
2018-11-14T15:41:16.309Z,196
2018-11-14T15:42:24.351Z,184
2018-11-14T15:43:32.413Z,164
2018-11-14T15:44:40.491Z,152
2018-11-14T15:45:48.554Z,140
2018-11-14T15:46:56.631Z,124
2018-11-14T15:48:04.651Z,112